Time;durP1;ratioP1;P1;durP2;ratioP2;P2;SDS_P1;SDS_P2;PMS_P1;PMS_P2;Temp;Humidity;BMP_temperature;BMP_pressure;BME280_temperature;BME280_humidity;BME280_pressure;Samples;Min_cycle;Max_cycle;Signal;HPM_P1;HPM_P2
2022/05/14 00:00:37;;;;;;;;;;;21.90;40.10;;;;;;5125286;28;19927;-56
2022/05/14 00:03:03;;;;;;;;;;;21.90;40.10;;;;;;5119833;28;20363;-58
2022/05/14 00:05:29;;;;;;;;;;;22.00;40.00;;;;;;5118810;28;20328;-57
2022/05/14 00:07:55;;;;;;;;;;;22.00;39.90;;;;;;5122640;28;19923;-55
2022/05/14 00:10:22;;;;;;;;;;;22.00;39.80;;;;;;5118975;28;19923;-58
2022/05/14 00:13:06;;;;;;;;;;;22.10;39.50;;;;;;5120338;28;19953;-56
2022/05/14 00:15:33;;;;;;;;;;;22.00;39.60;;;;;;5125138;28;19924;-55
2022/05/14 00:17:59;;;;;;;;;;;22.00;39.60;;;;;;5103398;28;20332;-58
2022/05/14 00:20:25;;;;;;;;;;;21.90;39.70;;;;;;5127363;28;19935;-54
2022/05/14 00:22:52;;;;;;;;;;;21.80;39.90;;;;;;5124944;28;19967;-55
2022/05/14 00:25:19;;;;;;;;;;;21.80;40.10;;;;;;5120515;28;19923;-57
2022/05/14 00:27:44;;;;;;;;;;;21.70;40.30;;;;;;5127260;28;19930;-56
2022/05/14 00:30:12;;;;;;;;;;;21.70;40.30;;;;;;5122553;28;20010;-58
2022/05/14 00:32:38;;;;;;;;;;;21.80;40.40;;;;;;5122750;28;19953;-58
2022/05/14 00:35:04;;;;;;;;;;;21.70;40.60;;;;;;5128313;28;19923;-56
2022/05/14 00:37:30;;;;;;;;;;;21.70;40.70;;;;;;5104766;28;20016;-58
2022/05/14 00:39:56;;;;;;;;;;;21.60;40.80;;;;;;5123170;28;19928;-56
2022/05/14 00:42:22;;;;;;;;;;;21.60;41.00;;;;;;5127476;28;19970;-57
2022/05/14 00:44:48;;;;;;;;;;;21.50;41.20;;;;;;5120484;28;19945;-57
2022/05/14 00:47:14;;;;;;;;;;;21.50;41.20;;;;;;5123612;28;19924;-58
2022/05/14 00:49:40;;;;;;;;;;;21.50;41.30;;;;;;5103733;28;20334;-56
2022/05/14 00:52:06;;;;;;;;;;;21.50;41.30;;;;;;5122578;28;19923;-57
2022/05/14 00:54:34;;;;;;;;;;;21.50;41.40;;;;;;5109702;28;19991;-56
2022/05/14 00:57:01;;;;;;;;;;;21.50;41.50;;;;;;5122744;28;19934;-59
2022/05/14 00:59:26;;;;;;;;;;;21.40;41.70;;;;;;5122548;28;20193;-58
2022/05/14 01:01:52;;;;;;;;;;;21.30;41.70;;;;;;5125555;28;19988;-57
2022/05/14 01:04:18;;;;;;;;;;;21.30;41.60;;;;;;5102390;28;19986;-56
2022/05/14 01:06:47;;;;;;;;;;;21.30;41.50;;;;;;5127602;28;19927;-56
2022/05/14 01:09:12;;;;;;;;;;;21.30;41.30;;;;;;5103561;28;19923;-56
2022/05/14 01:11:38;;;;;;;;;;;21.40;41.20;;;;;;5121779;28;20329;-55
2022/05/14 01:14:04;;;;;;;;;;;21.40;41.10;;;;;;5107622;28;20054;-54
2022/05/14 01:16:30;;;;;;;;;;;21.30;41.30;;;;;;5122211;28;19934;-58
2022/05/14 01:18:56;;;;;;;;;;;21.30;41.50;;;;;;5121367;28;19945;-56
2022/05/14 01:21:41;;;;;;;;;;;21.30;41.60;;;;;;5125147;28;19981;-55
2022/05/14 01:27:24;;;;;;;;;;;21.30;41.70;;;;;;5078175;28;20360;-58
2022/05/14 01:29:50;;;;;;;;;;;21.30;41.90;;;;;;5126448;27;19924;-58
2022/05/14 01:32:16;;;;;;;;;;;21.30;41.90;;;;;;5122001;28;19985;-56
2022/05/14 01:34:43;;;;;;;;;;;21.30;41.90;;;;;;5122114;28;19980;-58
2022/05/14 01:37:10;;;;;;;;;;;21.30;41.90;;;;;;5127124;28;20018;-57
2022/05/14 01:39:36;;;;;;;;;;;21.30;42.00;;;;;;5119030;28;19987;-58
2022/05/14 01:42:02;;;;;;;;;;;21.30;42.10;;;;;;5120936;28;19931;-56
2022/05/14 01:44:28;;;;;;;;;;;21.30;42.10;;;;;;5127264;28;19924;-57
2022/05/14 01:46:53;;;;;;;;;;;21.30;42.20;;;;;;5121766;28;19923;-59
2022/05/14 01:49:19;;;;;;;;;;;21.30;42.20;;;;;;5127152;28;19927;-56
2022/05/14 01:51:45;;;;;;;;;;;21.30;42.30;;;;;;5121525;28;19931;-58
2022/05/14 01:54:11;;;;;;;;;;;21.30;42.30;;;;;;5121632;28;19931;-56
2022/05/14 01:56:37;;;;;;;;;;;21.30;42.10;;;;;;5125216;28;19927;-56
2022/05/14 01:59:02;;;;;;;;;;;21.30;42.30;;;;;;5119877;28;19927;-57
2022/05/14 02:01:29;;;;;;;;;;;21.10;42.50;;;;;;5120914;28;20212;-58
2022/05/14 02:03:56;;;;;;;;;;;21.20;42.30;;;;;;5126875;28;19923;-58
2022/05/14 02:06:22;;;;;;;;;;;21.00;42.50;;;;;;5121740;28;19927;-54
2022/05/14 02:08:48;;;;;;;;;;;21.00;42.40;;;;;;5125337;28;19923;-54
2022/05/14 02:11:14;;;;;;;;;;;21.20;42.30;;;;;;5123011;28;19970;-55
2022/05/14 02:13:40;;;;;;;;;;;21.10;42.30;;;;;;5121234;28;20610;-58
2022/05/14 02:16:06;;;;;;;;;;;21.10;42.30;;;;;;5123871;28;19969;-58
2022/05/14 02:18:32;;;;;;;;;;;21.20;42.10;;;;;;5120291;28;19959;-57
2022/05/14 02:20:57;;;;;;;;;;;21.20;42.10;;;;;;5120973;28;20136;-57
2022/05/14 02:23:23;;;;;;;;;;;21.10;42.20;;;;;;5126718;28;20386;-58
2022/05/14 02:25:49;;;;;;;;;;;21.10;42.20;;;;;;5120971;28;20329;-55
2022/05/14 02:28:15;;;;;;;;;;;21.10;42.40;;;;;;5122907;28;20286;-57
2022/05/14 02:30:41;;;;;;;;;;;21.10;42.50;;;;;;5125484;28;19931;-51
2022/05/14 02:33:06;;;;;;;;;;;21.00;42.50;;;;;;5101454;28;19931;-52
2022/05/14 02:35:32;;;;;;;;;;;21.00;42.50;;;;;;5124465;28;19923;-55
2022/05/14 02:37:58;;;;;;;;;;;21.10;42.40;;;;;;5120392;28;19960;-55
2022/05/14 02:40:24;;;;;;;;;;;21.10;42.20;;;;;;5120475;27;19923;-56
2022/05/14 02:42:50;;;;;;;;;;;21.00;42.40;;;;;;5126564;28;20411;-55
2022/05/14 02:45:15;;;;;;;;;;;21.00;42.50;;;;;;5120594;28;19938;-58
2022/05/14 02:47:41;;;;;;;;;;;21.10;42.20;;;;;;5120840;28;19924;-57
2022/05/14 02:50:07;;;;;;;;;;;21.10;42.10;;;;;;5126178;28;21439;-57
2022/05/14 02:52:33;;;;;;;;;;;21.10;42.20;;;;;;5117904;28;19931;-54
2022/05/14 02:54:59;;;;;;;;;;;21.10;42.00;;;;;;5125114;28;20006;-55
2022/05/14 02:57:25;;;;;;;;;;;21.10;41.90;;;;;;5120364;28;20359;-54
2022/05/14 02:59:51;;;;;;;;;;;21.00;42.00;;;;;;5101434;28;20264;-55
2022/05/14 03:02:17;;;;;;;;;;;21.00;41.90;;;;;;5126117;28;19927;-56
2022/05/14 03:04:44;;;;;;;;;;;21.10;41.90;;;;;;5120502;28;19930;-54
2022/05/14 03:07:10;;;;;;;;;;;21.20;41.80;;;;;;5120485;28;19931;-56
2022/05/14 03:09:36;;;;;;;;;;;21.20;41.90;;;;;;5124751;28;19975;-56
2022/05/14 03:12:02;;;;;;;;;;;21.20;41.80;;;;;;5118580;28;19927;-55
2022/05/14 03:14:28;;;;;;;;;;;21.20;41.80;;;;;;5125385;28;19971;-54
2022/05/14 03:16:54;;;;;;;;;;;21.00;41.90;;;;;;5120019;28;19931;-56
2022/05/14 03:19:20;;;;;;;;;;;21.10;41.90;;;;;;5120027;28;20444;-56
2022/05/14 03:21:46;;;;;;;;;;;21.10;42.10;;;;;;5105711;28;19931;-55
2022/05/14 03:24:12;;;;;;;;;;;21.20;42.00;;;;;;5120648;28;20014;-57
2022/05/14 03:26:38;;;;;;;;;;;21.10;42.20;;;;;;5120237;28;20266;-57
2022/05/14 03:29:04;;;;;;;;;;;21.20;42.40;;;;;;5104772;28;20322;-57
2022/05/14 03:31:31;;;;;;;;;;;21.20;42.40;;;;;;5119047;28;19927;-57
2022/05/14 03:33:57;;;;;;;;;;;21.20;42.50;;;;;;5124274;28;20018;-58
2022/05/14 03:36:23;;;;;;;;;;;21.20;42.50;;;;;;5121494;28;19928;-56
2022/05/14 03:38:49;;;;;;;;;;;21.20;42.60;;;;;;5119819;28;19987;-54
2022/05/14 03:41:17;;;;;;;;;;;21.00;42.90;;;;;;5125632;28;20454;-57
2022/05/14 03:43:44;;;;;;;;;;;21.00;42.90;;;;;;5120044;28;19927;-55
2022/05/14 03:46:10;;;;;;;;;;;20.90;43.20;;;;;;5119010;28;20398;-55
2022/05/14 03:48:36;;;;;;;;;;;21.00;43.10;;;;;;5123192;28;19935;-56
2022/05/14 03:51:02;;;;;;;;;;;20.90;43.30;;;;;;5119428;27;19924;-55
2022/05/14 03:53:29;;;;;;;;;;;21.00;42.90;;;;;;5123132;28;19923;-57
2022/05/14 03:55:55;;;;;;;;;;;21.00;43.20;;;;;;5129100;28;19924;-56
2022/05/14 03:58:20;;;;;;;;;;;20.90;43.30;;;;;;5123709;28;20016;-54
2022/05/14 04:00:46;;;;;;;;;;;21.10;42.80;;;;;;5129193;28;20403;-58
2022/05/14 04:03:12;;;;;;;;;;;21.00;42.70;;;;;;5105770;28;20882;-55
2022/05/14 04:05:38;;;;;;;;;;;20.90;42.60;;;;;;5121405;28;19930;-56
2022/05/14 04:08:04;;;;;;;;;;;21.10;42.40;;;;;;5127543;28;19930;-55
2022/05/14 04:10:30;;;;;;;;;;;21.00;42.40;;;;;;5122891;28;19970;-55
2022/05/14 04:12:56;;;;;;;;;;;21.00;42.30;;;;;;5123050;28;19946;-56
2022/05/14 04:15:23;;;;;;;;;;;21.00;42.30;;;;;;5108883;28;19941;-56
2022/05/14 04:17:50;;;;;;;;;;;20.90;42.30;;;;;;5123004;28;19938;-57
2022/05/14 04:20:16;;;;;;;;;;;21.00;42.00;;;;;;5110018;28;19937;-55
2022/05/14 04:22:43;;;;;;;;;;;21.00;42.10;;;;;;5122392;28;19986;-54
2022/05/14 04:25:08;;;;;;;;;;;20.90;42.20;;;;;;5120845;28;20018;-55
2022/05/14 04:27:34;;;;;;;;;;;21.10;41.80;;;;;;5127925;28;19923;-55
2022/05/14 04:30:00;;;;;;;;;;;21.10;41.80;;;;;;5122865;28;19938;-55
2022/05/14 04:32:26;;;;;;;;;;;20.90;42.10;;;;;;5123116;28;20029;-56
2022/05/14 04:34:52;;;;;;;;;;;21.00;41.90;;;;;;5128218;28;20203;-54
2022/05/14 04:37:17;;;;;;;;;;;21.00;41.80;;;;;;5122800;28;19934;-56
2022/05/14 04:39:43;;;;;;;;;;;21.00;42.00;;;;;;5109896;28;20416;-55
2022/05/14 04:42:09;;;;;;;;;;;20.90;42.00;;;;;;5121372;28;20341;-55
2022/05/14 04:44:35;;;;;;;;;;;21.00;41.70;;;;;;5121318;28;20364;-56
2022/05/14 04:47:01;;;;;;;;;;;20.90;41.80;;;;;;5128012;28;19923;-57
2022/05/14 04:49:30;;;;;;;;;;;21.10;41.60;;;;;;5122428;28;19923;-56
2022/05/14 04:51:56;;;;;;;;;;;21.10;41.60;;;;;;5122622;28;19923;-54
2022/05/14 04:54:22;;;;;;;;;;;21.00;41.60;;;;;;5128047;28;19923;-56
2022/05/14 04:56:48;;;;;;;;;;;21.00;41.60;;;;;;5103959;28;20250;-49
2022/05/14 04:59:14;;;;;;;;;;;20.90;41.70;;;;;;5123626;28;19952;-56
2022/05/14 05:03:16;;;;;;;;;;;21.10;41.50;;;;;;5124048;28;20634;-55
2022/05/14 05:04:25;;;;;;;;;;;21.00;41.70;;;;;;5121927;27;20371;-54
2022/05/14 05:06:51;;;;;;;;;;;21.10;41.40;;;;;;5126938;28;19961;-56
2022/05/14 05:09:17;;;;;;;;;;;21.00;41.70;;;;;;5104357;28;19985;-57
2022/05/14 05:11:43;;;;;;;;;;;21.20;41.40;;;;;;5122217;28;19927;-54
2022/05/14 05:14:08;;;;;;;;;;;21.10;41.60;;;;;;5127971;28;19927;-55
2022/05/14 05:16:35;;;;;;;;;;;21.10;41.80;;;;;;5122719;28;19977;-52
2022/05/14 05:19:01;;;;;;;;;;;21.00;41.90;;;;;;5120085;28;20498;-56
2022/05/14 05:21:27;;;;;;;;;;;21.10;41.80;;;;;;5126201;28;19945;-55
2022/05/14 05:23:53;;;;;;;;;;;21.30;41.20;;;;;;5103123;28;20376;-56
2022/05/14 05:26:18;;;;;;;;;;;21.30;40.90;;;;;;5123919;28;19972;-58
2022/05/14 05:28:44;;;;;;;;;;;21.30;40.80;;;;;;5107269;28;19935;-56
2022/05/14 05:31:10;;;;;;;;;;;21.30;40.90;;;;;;5103326;28;19923;-54
2022/05/14 05:33:36;;;;;;;;;;;21.40;40.70;;;;;;5127721;28;20542;-54
2022/05/14 05:36:01;;;;;;;;;;;21.30;41.00;;;;;;5121452;28;19931;-56
2022/05/14 05:38:27;;;;;;;;;;;21.30;41.40;;;;;;5119044;28;19931;-56
2022/05/14 05:40:53;;;;;;;;;;;21.30;41.80;;;;;;5126537;28;19930;-56
2022/05/14 05:43:20;;;;;;;;;;;21.30;42.00;;;;;;5121574;28;19932;-55
2022/05/14 05:45:47;;;;;;;;;;;21.30;41.80;;;;;;5121824;28;19927;-57
2022/05/14 05:48:13;;;;;;;;;;;21.20;41.80;;;;;;5125317;28;19931;-56
2022/05/14 05:50:38;;;;;;;;;;;21.30;41.80;;;;;;5103394;28;20022;-56
2022/05/14 05:53:05;;;;;;;;;;;21.30;42.20;;;;;;5127423;28;19928;-54
2022/05/14 05:58:17;;;;;;;;;;;21.40;41.60;;;;;;5120436;28;19982;-55
2022/05/14 06:00:43;;;;;;;;;;;21.30;41.50;;;;;;5127079;28;19924;-54
2022/05/14 06:03:08;;;;;;;;;;;21.40;41.40;;;;;;5121643;28;19935;-55
2022/05/14 06:05:34;;;;;;;;;;;21.40;41.40;;;;;;5121328;28;19923;-56
2022/05/14 06:08:00;;;;;;;;;;;21.50;41.40;;;;;;5127083;28;19931;-56
2022/05/14 06:10:26;;;;;;;;;;;21.50;41.50;;;;;;5121381;28;20275;-57
2022/05/14 06:12:52;;;;;;;;;;;21.60;41.50;;;;;;5120850;28;20008;-57
2022/05/14 06:15:18;;;;;;;;;;;21.60;41.80;;;;;;5123789;27;19962;-54
2022/05/14 06:17:44;;;;;;;;;;;21.70;41.90;;;;;;5120593;28;19931;-55
2022/05/14 06:20:10;;;;;;;;;;;21.70;42.00;;;;;;5126450;28;19923;-57
2022/05/14 06:22:36;;;;;;;;;;;21.70;42.10;;;;;;5120968;28;20018;-55
2022/05/14 06:25:03;;;;;;;;;;;21.70;42.20;;;;;;5100864;28;19938;-53
2022/05/14 06:27:28;;;;;;;;;;;21.70;42.40;;;;;;5126580;28;19937;-55
2022/05/14 06:29:54;;;;;;;;;;;21.80;42.20;;;;;;5121228;28;19927;-57
2022/05/14 06:32:20;;;;;;;;;;;21.80;42.20;;;;;;5100589;28;20144;-55
2022/05/14 06:34:46;;;;;;;;;;;21.80;42.50;;;;;;5124605;28;19923;-56
2022/05/14 06:37:13;;;;;;;;;;;21.80;42.30;;;;;;5120276;28;19927;-55
2022/05/14 06:39:39;;;;;;;;;;;21.80;42.40;;;;;;5126229;28;19927;-55
2022/05/14 06:42:05;;;;;;;;;;;22.00;42.30;;;;;;5121058;28;19923;-55
2022/05/14 06:44:31;;;;;;;;;;;22.00;42.10;;;;;;5120952;28;20004;-55
2022/05/14 06:46:57;;;;;;;;;;;22.00;42.30;;;;;;5126590;28;19930;-53
2022/05/14 06:49:23;;;;;;;;;;;22.00;42.30;;;;;;5120550;28;19974;-56
2022/05/14 06:51:49;;;;;;;;;;;22.00;42.40;;;;;;5118299;28;19931;-56
2022/05/14 06:54:15;;;;;;;;;;;22.10;42.20;;;;;;5107125;28;20302;-53
2022/05/14 06:56:41;;;;;;;;;;;22.20;42.00;;;;;;5120620;28;19967;-53
2022/05/14 06:59:07;;;;;;;;;;;22.20;41.90;;;;;;5125244;28;20376;-55
2022/05/14 07:01:34;;;;;;;;;;;22.20;41.70;;;;;;5122004;28;20012;-54
2022/05/14 07:06:48;;;;;;;;;;;22.20;41.60;;;;;;5110742;28;19923;-55
2022/05/14 07:09:19;;;;;;;;;;;22.30;41.40;;;;;;5100083;28;20335;-56
2022/05/14 07:11:46;;;;;;;;;;;22.30;41.80;;;;;;5118964;28;19927;-54
2022/05/14 07:14:12;;;;;;;;;;;22.30;41.90;;;;;;5125657;28;19945;-52
2022/05/14 07:16:38;;;;;;;;;;;22.40;41.90;;;;;;5120167;28;20364;-56
2022/05/14 07:19:06;;;;;;;;;;;22.40;42.00;;;;;;5120174;28;20212;-55
2022/05/14 07:21:36;;;;;;;;;;;21.70;43.30;;;;;;5125774;28;20026;-57
2022/05/14 07:24:04;;;;;;;;;;;21.20;43.90;;;;;;5120370;28;19937;-57
2022/05/14 07:26:30;;;;;;;;;;;21.40;44.30;;;;;;5119469;27;19966;-58
2022/05/14 07:28:55;;;;;;;;;;;21.40;44.00;;;;;;5127014;28;19930;-56
2022/05/14 07:31:21;;;;;;;;;;;21.50;43.60;;;;;;5123104;28;19969;-56
2022/05/14 07:33:47;;;;;;;;;;;21.50;43.70;;;;;;5129327;28;20814;-55
2022/05/14 07:36:14;;;;;;;;;;;21.50;43.70;;;;;;5123838;28;19977;-57
2022/05/14 07:38:40;;;;;;;;;;;21.50;43.70;;;;;;5105373;28;19923;-58
2022/05/14 07:41:06;;;;;;;;;;;21.60;43.70;;;;;;5129373;28;19973;-57
2022/05/14 07:43:33;;;;;;;;;;;21.60;43.80;;;;;;5123833;28;19967;-56
2022/05/14 07:45:59;;;;;;;;;;;21.50;44.10;;;;;;5101537;28;20058;-58
2022/05/14 07:48:27;;;;;;;;;;;21.60;44.10;;;;;;5127827;28;19923;-58
2022/05/14 07:50:53;;;;;;;;;;;21.60;44.10;;;;;;5123333;28;19923;-58
2022/05/14 07:53:18;;;;;;;;;;;21.60;44.10;;;;;;5128126;28;19957;-58
2022/05/14 07:55:44;;;;;;;;;;;21.60;44.00;;;;;;5106643;28;19927;-58
2022/05/14 07:58:10;;;;;;;;;;;21.60;43.90;;;;;;5123511;28;19962;-58
2022/05/14 08:00:36;;;;;;;;;;;21.60;43.80;;;;;;5129284;28;19969;-58
2022/05/14 08:03:02;;;;;;;;;;;21.60;43.80;;;;;;5123069;28;19932;-58
2022/05/14 08:05:28;;;;;;;;;;;21.50;43.90;;;;;;5102227;28;19924;-58
2022/05/14 08:07:54;;;;;;;;;;;21.60;43.80;;;;;;5109514;28;19963;-56
2022/05/14 08:10:19;;;;;;;;;;;21.60;43.60;;;;;;5123069;28;19970;-58
2022/05/14 08:12:49;;;;;;;;;;;21.60;43.40;;;;;;5125354;28;20022;-57
2022/05/14 08:15:15;;;;;;;;;;;21.70;43.30;;;;;;5128544;28;19931;-58
2022/05/14 08:17:41;;;;;;;;;;;21.50;43.30;;;;;;5102753;28;20015;-58
2022/05/14 08:20:07;;;;;;;;;;;21.60;43.10;;;;;;5128969;28;19931;-58
2022/05/14 08:25:18;;;;;;;;;;;21.70;42.80;;;;;;5121309;28;20510;-58
2022/05/14 08:27:47;;;;;;;;;;;21.60;42.80;;;;;;5128302;28;19943;-58
2022/05/14 08:30:29;;;;;;;;;;;21.70;42.60;;;;;;5119008;28;20015;-57
2022/05/14 08:32:55;;;;;;;;;;;21.80;42.20;;;;;;5122703;28;19970;-57
2022/05/14 08:35:22;;;;;;;;;;;21.80;42.10;;;;;;5128474;28;19924;-58
2022/05/14 08:37:51;;;;;;;;;;;21.80;42.20;;;;;;5104471;28;19924;-58
2022/05/14 08:40:21;;;;;;;;;;;21.80;42.20;;;;;;5121897;28;19927;-59
2022/05/14 08:42:47;;;;;;;;;;;21.80;42.20;;;;;;5126559;28;20010;-59
2022/05/14 08:45:15;;;;;;;;;;;21.80;42.10;;;;;;5103974;28;19924;-59
2022/05/14 08:47:46;;;;;;;;;;;21.80;42.10;;;;;;5122632;28;19928;-57
2022/05/14 08:50:12;;;;;;;;;;;21.80;42.30;;;;;;5128515;28;19924;-58
2022/05/14 08:52:38;;;;;;;;;;;21.80;42.20;;;;;;5104379;28;19930;-58
2022/05/14 08:55:05;;;;;;;;;;;21.90;42.00;;;;;;5128561;28;20374;-59
2022/05/14 08:57:33;;;;;;;;;;;21.90;41.90;;;;;;5122841;28;19923;-60
2022/05/14 08:59:59;;;;;;;;;;;21.90;42.00;;;;;;5119969;28;19970;-59
2022/05/14 09:02:27;;;;;;;;;;;21.80;42.30;;;;;;5108954;28;19930;-56
2022/05/14 09:04:57;;;;;;;;;;;21.50;42.70;;;;;;5104311;28;19923;-59
2022/05/14 09:07:23;;;;;;;;;;;21.20;42.50;;;;;;5122585;28;19974;-57
2022/05/14 09:09:50;;;;;;;;;;;21.00;42.00;;;;;;5127869;28;20026;-58
2022/05/14 09:12:17;;;;;;;;;;;21.50;43.80;;;;;;5104419;28;19923;-56
2022/05/14 09:14:42;;;;;;;;;;;22.10;42.20;;;;;;5088343;28;20018;-56
2022/05/14 09:17:11;;;;;;;;;;;22.40;41.40;;;;;;5124690;28;19927;-56
2022/05/14 09:19:38;;;;;;;;;;;22.50;40.90;;;;;;5120290;28;20381;-56
2022/05/14 09:22:17;;;;;;;;;;;22.70;40.30;;;;;;5127193;28;20283;-48
2022/05/14 09:25:00;;;;;;;;;;;22.10;41.30;;;;;;5121818;28;19930;-56
2022/05/14 09:27:27;;;;;;;;;;;21.50;42.60;;;;;;5086811;28;20014;-56
2022/05/14 09:29:56;;;;;;;;;;;21.70;42.50;;;;;;5107873;28;20370;-57
2022/05/14 09:32:22;;;;;;;;;;;21.80;42.00;;;;;;5104041;28;19923;-57
2022/05/14 09:34:48;;;;;;;;;;;21.90;41.90;;;;;;5121647;28;19934;-55
2022/05/14 09:37:18;;;;;;;;;;;21.90;41.80;;;;;;5124794;28;20018;-56
2022/05/14 09:39:55;;;;;;;;;;;21.90;41.60;;;;;;5121273;28;20018;-57
2022/05/14 09:42:32;;;;;;;;;;;21.90;41.60;;;;;;5121794;28;19930;-57
2022/05/14 09:44:58;;;;;;;;;;;22.00;41.60;;;;;;5127689;28;20010;-58
2022/05/14 09:47:25;;;;;;;;;;;21.90;41.80;;;;;;5121943;28;19927;-58
2022/05/14 09:49:59;;;;;;;;;;;21.80;41.70;;;;;;5120992;27;20132;-58
2022/05/14 09:52:25;;;;;;;;;;;21.90;41.80;;;;;;5127652;28;19923;-58
2022/05/14 09:54:51;;;;;;;;;;;21.90;41.80;;;;;;5119426;28;20390;-58
2022/05/14 09:57:36;;;;;;;;;;;22.00;41.70;;;;;;5122216;28;19930;-59
2022/05/14 10:00:07;;;;;;;;;;;22.00;41.80;;;;;;5126861;28;20041;-59
2022/05/14 10:02:52;;;;;;;;;;;22.00;41.80;;;;;;5121913;28;19930;-57
2022/05/14 10:05:17;;;;;;;;;;;22.10;41.80;;;;;;5121653;28;19939;-58
2022/05/14 10:07:44;;;;;;;;;;;22.00;41.90;;;;;;5127139;28;20009;-57
2022/05/14 10:10:25;;;;;;;;;;;22.00;41.80;;;;;;5121882;28;20011;-59
2022/05/14 10:12:56;;;;;;;;;;;21.90;42.00;;;;;;5101498;28;19928;-57
2022/05/14 10:15:25;;;;;;;;;;;22.00;41.80;;;;;;5125677;28;20308;-59
2022/05/14 10:18:06;;;;;;;;;;;22.10;41.70;;;;;;5121063;28;20527;-59
2022/05/14 10:20:52;;;;;;;;;;;21.80;42.50;;;;;;5087527;28;19971;-56
2022/05/14 10:26:47;;;;;;;;;;;21.10;44.00;;;;;;5121639;28;19929;-58
2022/05/14 10:29:31;;;;;;;;;;;21.70;42.80;;;;;;5104319;28;19924;-59
2022/05/14 10:32:02;;;;;;;;;;;21.80;42.50;;;;;;5124239;28;19931;-57
2022/05/14 10:34:30;;;;;;;;;;;21.80;42.30;;;;;;5122219;28;19931;-58
2022/05/14 10:36:58;;;;;;;;;;;21.90;42.10;;;;;;5120520;28;21219;-58
2022/05/14 10:39:34;;;;;;;;;;;21.90;42.20;;;;;;5127013;28;20109;-56
2022/05/14 10:42:03;;;;;;;;;;;22.00;42.00;;;;;;5101720;28;19928;-57
2022/05/14 10:44:29;;;;;;;;;;;22.00;41.70;;;;;;5101723;28;19924;-56
2022/05/14 10:46:55;;;;;;;;;;;22.00;41.60;;;;;;5126872;28;19928;-58
2022/05/14 10:49:22;;;;;;;;;;;22.00;41.70;;;;;;5100544;28;19971;-58
2022/05/14 10:51:49;;;;;;;;;;;21.90;41.80;;;;;;5100307;28;19923;-58
2022/05/14 10:54:15;;;;;;;;;;;22.00;41.60;;;;;;5126054;28;20406;-58
2022/05/14 10:57:13;;;;;;;;;;;22.00;41.50;;;;;;5102590;28;20298;-59
2022/05/14 10:59:39;;;;;;;;;;;22.10;41.20;;;;;;5064222;28;19923;-55
2022/05/14 11:02:12;;;;;;;;;;;22.10;41.10;;;;;;5126222;27;19929;-58
2022/05/14 11:04:41;;;;;;;;;;;21.10;43.00;;;;;;5102668;28;19980;-57
2022/05/14 11:07:07;;;;;;;;;;;19.80;46.10;;;;;;5120275;28;19924;-58
2022/05/14 11:09:39;;;;;;;;;;;20.90;44.00;;;;;;5124238;28;19927;-57
2022/05/14 11:12:06;;;;;;;;;;;21.40;42.70;;;;;;5120704;28;19929;-57
2022/05/14 11:14:44;;;;;;;;;;;21.80;42.00;;;;;;5126298;28;20022;-56
2022/05/14 11:17:16;;;;;;;;;;;21.90;41.70;;;;;;5125723;28;19929;-58
2022/05/14 11:19:42;;;;;;;;;;;21.80;41.70;;;;;;5120914;28;19954;-58
2022/05/14 11:22:18;;;;;;;;;;;21.90;41.50;;;;;;5126117;28;19927;-56
2022/05/14 11:24:43;;;;;;;;;;;21.50;41.90;;;;;;5103013;28;19930;-56
2022/05/14 11:27:09;;;;;;;;;;;21.30;41.40;;;;;;5118423;28;19931;-56
2022/05/14 11:29:46;;;;;;;;;;;21.30;41.60;;;;;;5125196;28;19933;-57
2022/05/14 11:32:13;;;;;;;;;;;21.60;42.20;;;;;;5120797;28;19933;-57
2022/05/14 11:34:48;;;;;;;;;;;21.80;41.90;;;;;;5102642;28;20267;-58
2022/05/14 11:37:14;;;;;;;;;;;21.90;41.60;;;;;;5125964;28;20381;-57
2022/05/14 11:39:40;;;;;;;;;;;21.80;41.60;;;;;;5102272;28;20243;-58
2022/05/14 11:42:09;;;;;;;;;;;22.00;41.30;;;;;;5120945;28;19923;-57
2022/05/14 11:44:38;;;;;;;;;;;22.00;41.20;;;;;;5123919;28;19931;-55
2022/05/14 11:47:05;;;;;;;;;;;22.00;41.20;;;;;;5119638;28;20025;-57
2022/05/14 11:49:32;;;;;;;;;;;22.10;41.10;;;;;;5123040;28;20528;-56
2022/05/14 11:52:13;;;;;;;;;;;22.10;41.10;;;;;;5124441;28;19927;-57
2022/05/14 11:54:48;;;;;;;;;;;22.10;40.90;;;;;;5102392;28;19923;-56
2022/05/14 11:57:27;;;;;;;;;;;22.10;40.70;;;;;;5123911;28;20035;-54
2022/05/14 12:00:03;;;;;;;;;;;22.20;40.40;;;;;;5125881;28;19979;-54
2022/05/14 12:02:35;;;;;;;;;;;22.10;40.40;;;;;;5119519;28;19970;-55
2022/05/14 12:05:01;;;;;;;;;;;20.70;43.20;;;;;;5121003;28;19923;-57
2022/05/14 12:07:33;;;;;;;;;;;20.10;44.30;;;;;;5124411;28;20011;-51
2022/05/14 12:10:18;;;;;;;;;;;20.90;42.70;;;;;;5121930;28;20398;-51
2022/05/14 12:12:49;;;;;;;;;;;21.70;41.10;;;;;;5124652;27;19924;-53
2022/05/14 12:15:15;;;;;;;;;;;21.90;40.60;;;;;;5110200;28;19938;-50
2022/05/14 12:17:54;;;;;;;;;;;21.90;40.50;;;;;;5107222;28;19954;-50
2022/05/14 12:20:21;;;;;;;;;;;21.90;40.40;;;;;;5110637;28;20026;-49
2022/05/14 12:22:51;;;;;;;;;;;22.00;40.20;;;;;;5123149;28;19934;-52
2022/05/14 12:25:16;;;;;;;;;;;22.00;40.00;;;;;;5124608;28;19927;-53
2022/05/14 12:27:47;;;;;;;;;;;22.00;39.90;;;;;;5129145;28;20463;-50
2022/05/14 12:33:11;;;;;;;;;;;22.10;40.00;;;;;;5125225;28;19951;-51
2022/05/14 12:33:12;;;;;;;;;;;22.10;39.60;;;;;;5123725;28;20282;-50
2022/05/14 12:35:40;;;;;;;;;;;20.50;43.10;;;;;;5129286;28;19929;-54
2022/05/14 12:38:06;;;;;;;;;;;20.60;43.00;;;;;;5104703;28;19927;-49
2022/05/14 12:40:35;;;;;;;;;;;21.50;41.10;;;;;;5103951;28;19931;-49
2022/05/14 12:43:00;;;;;;;;;;;21.80;40.60;;;;;;5128234;28;20454;-49
2022/05/14 12:45:36;;;;;;;;;;;21.90;40.20;;;;;;5106314;28;20010;-48
2022/05/14 12:48:03;;;;;;;;;;;21.90;40.10;;;;;;5124916;28;19959;-48
2022/05/14 12:50:33;;;;;;;;;;;22.00;39.80;;;;;;5128911;28;19927;-50
2022/05/14 12:53:02;;;;;;;;;;;22.00;39.50;;;;;;5107085;28;19933;-49
2022/05/14 12:55:27;;;;;;;;;;;22.00;39.50;;;;;;5125108;28;19946;-49
2022/05/14 12:57:53;;;;;;;;;;;22.10;39.40;;;;;;5109371;28;20017;-49
2022/05/14 13:00:21;;;;;;;;;;;22.10;39.30;;;;;;5104869;28;19927;-49
2022/05/14 13:02:52;;;;;;;;;;;22.20;39.30;;;;;;5128464;28;19949;-49
2022/05/14 13:05:21;;;;;;;;;;;22.20;39.10;;;;;;5124505;28;19963;-51
2022/05/14 13:07:48;;;;;;;;;;;21.50;39.90;;;;;;5123361;28;20022;-47
2022/05/14 13:10:18;;;;;;;;;;;20.10;42.90;;;;;;5128431;28;19923;-46
2022/05/14 13:12:48;;;;;;;;;;;20.30;42.40;;;;;;5106176;28;20393;-48
2022/05/14 13:15:13;;;;;;;;;;;21.30;40.30;;;;;;5104108;28;19923;-48
2022/05/14 13:17:39;;;;;;;;;;;21.80;39.40;;;;;;5126200;28;19931;-49
2022/05/14 13:20:06;;;;;;;;;;;22.00;39.10;;;;;;5123371;28;19985;-50
2022/05/14 13:22:32;;;;;;;;;;;22.00;39.10;;;;;;5123565;28;20000;-49
2022/05/14 13:24:59;;;;;;;;;;;22.00;39.10;;;;;;5106576;28;19940;-49
2022/05/14 13:27:35;;;;;;;;;;;22.00;39.10;;;;;;5105212;28;20077;-47
2022/05/14 13:30:21;;;;;;;;;;;21.60;39.80;;;;;;5128549;28;20021;-49
2022/05/14 13:32:46;;;;;;;;;;;21.50;39.10;;;;;;5110754;28;20018;-50
2022/05/14 13:38:07;;;;;;;;;;;21.80;40.10;;;;;;5123016;28;20026;-48
2022/05/14 13:40:34;;;;;;;;;;;22.00;39.40;;;;;;5127636;28;20018;-51
2022/05/14 13:43:04;;;;;;;;;;;22.10;39.20;;;;;;5105282;28;19931;-48
2022/05/14 13:45:30;;;;;;;;;;;22.00;39.10;;;;;;5128010;28;19923;-47
2022/05/14 13:48:00;;;;;;;;;;;22.10;39.00;;;;;;5123801;28;19924;-46
2022/05/14 13:50:27;;;;;;;;;;;22.20;38.70;;;;;;5105252;28;20003;-47
2022/05/14 13:52:53;;;;;;;;;;;22.20;38.70;;;;;;5126708;28;19927;-47
2022/05/14 13:55:29;;;;;;;;;;;22.30;38.50;;;;;;5120428;28;20052;-45
2022/05/14 13:57:56;;;;;;;;;;;21.80;38.70;;;;;;5121834;28;19979;-44
2022/05/14 14:00:22;;;;;;;;;;;20.20;42.10;;;;;;5127644;28;19973;-49
2022/05/14 14:03:01;;;;;;;;;;;20.40;41.60;;;;;;5124043;28;19923;-46
2022/05/14 14:05:27;;;;;;;;;;;21.50;39.50;;;;;;5122392;28;20462;-51
2022/05/14 14:07:53;;;;;;;;;;;21.80;38.80;;;;;;5127558;28;19923;-48
2022/05/14 14:10:20;;;;;;;;;;;22.00;38.40;;;;;;5122346;28;20321;-50
2022/05/14 14:12:45;;;;;;;;;;;22.10;38.20;;;;;;5103378;28;20357;-57
2022/05/14 14:15:15;;;;;;;;;;;22.20;38.10;;;;;;5106343;28;19934;-50
2022/05/14 14:17:45;;;;;;;;;;;22.20;38.20;;;;;;5122318;28;19931;-48
2022/05/14 14:20:11;;;;;;;;;;;22.20;38.10;;;;;;5127159;28;20371;-49
2022/05/14 14:22:38;;;;;;;;;;;22.10;38.20;;;;;;5121984;28;19946;-48
2022/05/14 14:25:04;;;;;;;;;;;22.20;38.10;;;;;;5122441;28;19930;-51
2022/05/14 14:27:29;;;;;;;;;;;22.20;38.20;;;;;;5127162;28;19927;-49
2022/05/14 14:29:57;;;;;;;;;;;22.30;38.10;;;;;;5102371;28;20375;-51
2022/05/14 14:32:24;;;;;;;;;;;22.20;38.10;;;;;;5120716;28;19939;-50
2022/05/14 14:34:50;;;;;;;;;;;22.20;38.20;;;;;;5126702;28;20014;-48
2022/05/14 14:37:17;;;;;;;;;;;22.30;38.00;;;;;;5121137;27;19923;-46